Time;durP1;ratioP1;P1;durP2;ratioP2;P2;SDS_P1;SDS_P2;PMS_P1;PMS_P2;Temp;Humidity;BMP_temperature;BMP_pressure;BME280_temperature;BME280_humidity;BME280_pressure;Samples;Min_cycle;Max_cycle;Signal;HPM_P1;HPM_P2
2023/06/26 00:00:32;;;;;;;8.85;6.03;;;;;;;;;;5037922;28;20041;-72
2023/06/26 00:02:58;;;;;;;8.15;6.60;;;;;;;;;;5054326;28;20347;-72
2023/06/26 00:05:24;;;;;;;9.40;6.82;;;;;;;;;;5054060;28;20080;-72
2023/06/26 00:07:50;;;;;;;9.60;6.57;;;;;;;;;;5054178;28;20041;-72
2023/06/26 00:10:17;;;;;;;9.77;6.75;;;;;;;;;;5053646;28;20129;-72
2023/06/26 00:12:43;;;;;;;7.60;6.50;;;;;;;;;;5050441;28;20049;-72
2023/06/26 00:15:09;;;;;;;8.27;6.28;;;;;;;;;;5033609;28;20041;-72
2023/06/26 00:17:37;;;;;;;7.57;6.28;;;;;;;;;;5034374;28;20100;-72
2023/06/26 00:20:05;;;;;;;8.35;6.50;;;;;;;;;;5033836;28;20096;-72
2023/06/26 00:22:31;;;;;;;8.48;6.30;;;;;;;;;;5034109;28;20056;-72
2023/06/26 00:24:57;;;;;;;7.03;6.32;;;;;;;;;;5032585;28;20045;-72
2023/06/26 00:27:23;;;;;;;8.52;6.65;;;;;;;;;;5034118;28;20144;-72
2023/06/26 00:29:50;;;;;;;8.68;6.50;;;;;;;;;;5046454;28;20385;-72
2023/06/26 00:32:16;;;;;;;9.30;6.60;;;;;;;;;;5037707;28;20417;-72
2023/06/26 00:34:42;;;;;;;9.50;6.45;;;;;;;;;;5033528;28;20042;-72
2023/06/26 00:37:08;;;;;;;7.80;6.63;;;;;;;;;;5036929;28;20048;-72
2023/06/26 00:39:35;;;;;;;9.07;6.47;;;;;;;;;;5052878;28;20041;-72
2023/06/26 00:42:01;;;;;;;8.43;6.32;;;;;;;;;;5037133;28;20556;-71
2023/06/26 00:44:27;;;;;;;7.95;6.63;;;;;;;;;;5038037;28;20400;-71
2023/06/26 00:46:54;;;;;;;9.70;7.07;;;;;;;;;;5031423;28;20052;-72
2023/06/26 00:49:20;;;;;;;8.38;6.72;;;;;;;;;;5052067;28;20045;-72
2023/06/26 00:51:47;;;;;;;8.27;6.80;;;;;;;;;;5036611;28;20041;-72
2023/06/26 00:54:19;;;;;;;8.40;6.82;;;;;;;;;;5051066;28;20049;-72
2023/06/26 00:56:46;;;;;;;9.68;6.68;;;;;;;;;;5046690;28;20049;-72
2023/06/26 00:59:12;;;;;;;9.52;6.93;;;;;;;;;;5043219;28;20391;-72
2023/06/26 01:01:38;;;;;;;9.20;6.97;;;;;;;;;;5038236;28;20516;-72
2023/06/26 01:04:05;;;;;;;12.57;7.00;;;;;;;;;;5033335;28;20045;-72
2023/06/26 01:06:35;;;;;;;9.23;7.22;;;;;;;;;;5033240;28;20124;-73
2023/06/26 01:09:02;;;;;;;9.38;7.13;;;;;;;;;;5047601;28;20126;-73
2023/06/26 01:11:28;;;;;;;8.25;6.95;;;;;;;;;;5041143;28;20045;-73
2023/06/26 01:13:55;;;;;;;8.48;6.90;;;;;;;;;;5052319;28;20071;-75
2023/06/26 01:16:22;;;;;;;8.52;6.78;;;;;;;;;;5052570;28;20076;-73
2023/06/26 01:18:48;;;;;;;10.48;7.50;;;;;;;;;;5052257;28;20048;-73
2023/06/26 01:21:15;;;;;;;8.40;7.00;;;;;;;;;;5052303;28;20128;-72
2023/06/26 01:24:05;;;;;;;9.85;6.95;;;;;;;;;;5050704;28;20048;-73
2023/06/26 01:26:35;;;;;;;9.10;7.45;;;;;;;;;;5036402;28;20359;-73
2023/06/26 01:29:01;;;;;;;11.18;7.38;;;;;;;;;;5050179;28;20052;-73
2023/06/26 01:31:28;;;;;;;9.02;7.00;;;;;;;;;;5051862;28;20390;-73
2023/06/26 01:33:55;;;;;;;9.55;6.90;;;;;;;;;;5052352;28;20060;-73
2023/06/26 01:36:21;;;;;;;10.95;7.55;;;;;;;;;;5037022;28;20089;-73
2023/06/26 01:38:48;;;;;;;8.88;7.05;;;;;;;;;;5032466;28;20045;-73
2023/06/26 01:41:14;;;;;;;9.00;6.80;;;;;;;;;;5042942;28;20045;-73
2023/06/26 01:43:40;;;;;;;9.43;7.45;;;;;;;;;;5050811;28;20143;-72
2023/06/26 01:46:10;;;;;;;10.75;7.57;;;;;;;;;;5039315;28;20052;-73
2023/06/26 01:48:46;;;;;;;12.13;7.10;;;;;;;;;;5032230;28;20045;-73
2023/06/26 01:51:14;;;;;;;8.75;6.95;;;;;;;;;;5032224;28;20515;-72
2023/06/26 01:53:45;;;;;;;10.18;7.57;;;;;;;;;;5036537;28;20087;-72
2023/06/26 01:56:14;;;;;;;8.80;7.15;;;;;;;;;;5039290;28;20037;-72
2023/06/26 01:58:43;;;;;;;9.63;7.28;;;;;;;;;;5049291;28;20084;-72
2023/06/26 02:01:10;;;;;;;7.88;7.07;;;;;;;;;;5050556;28;20409;-72
2023/06/26 02:03:36;;;;;;;10.50;7.95;;;;;;;;;;5043895;28;20068;-73
2023/06/26 02:06:02;;;;;;;8.65;7.10;;;;;;;;;;5039148;28;20037;-72
2023/06/26 02:08:28;;;;;;;9.68;7.20;;;;;;;;;;5036942;28;20065;-72
2023/06/26 02:10:54;;;;;;;9.98;7.78;;;;;;;;;;5033911;28;20045;-72
2023/06/26 02:13:20;;;;;;;10.30;7.82;;;;;;;;;;5052197;28;20048;-72
2023/06/26 02:15:46;;;;;;;8.20;7.10;;;;;;;;;;5051752;28;20037;-73
2023/06/26 02:18:13;;;;;;;9.45;7.30;;;;;;;;;;5052027;28;20048;-72
2023/06/26 02:20:39;;;;;;;10.70;7.70;;;;;;;;;;5050113;28;20045;-72
2023/06/26 02:23:06;;;;;;;9.65;7.93;;;;;;;;;;5049475;28;20084;-73
2023/06/26 02:25:32;;;;;;;9.52;7.28;;;;;;;;;;5032213;28;20367;-72
2023/06/26 02:27:58;;;;;;;9.20;7.32;;;;;;;;;;5030667;28;20053;-72
2023/06/26 02:30:24;;;;;;;10.25;7.50;;;;;;;;;;5014028;28;20104;-72
2023/06/26 02:32:50;;;;;;;10.10;7.22;;;;;;;;;;5031928;28;20536;-73
2023/06/26 02:35:16;;;;;;;9.95;7.53;;;;;;;;;;5031685;28;20077;-72
2023/06/26 02:37:42;;;;;;;9.02;7.53;;;;;;;;;;5047512;28;20048;-72
2023/06/26 02:40:10;;;;;;;8.45;7.18;;;;;;;;;;5042262;28;20053;-72
2023/06/26 02:42:36;;;;;;;9.35;7.47;;;;;;;;;;5036253;28;20091;-72
2023/06/26 02:45:02;;;;;;;9.25;7.68;;;;;;;;;;5035802;28;20544;-72
2023/06/26 02:47:28;;;;;;;8.93;7.68;;;;;;;;;;5042392;28;20077;-72
2023/06/26 02:49:54;;;;;;;10.73;8.20;;;;;;;;;;5045178;28;20046;-72
2023/06/26 02:52:21;;;;;;;10.77;8.13;;;;;;;;;;5051182;28;20370;-72
2023/06/26 02:54:47;;;;;;;11.20;8.27;;;;;;;;;;5038859;28;20049;-72
2023/06/26 02:57:14;;;;;;;8.98;7.65;;;;;;;;;;5047329;28;20390;-73
2023/06/26 02:59:40;;;;;;;11.63;8.73;;;;;;;;;;5018332;28;20046;-73
2023/06/26 03:02:06;;;;;;;11.65;8.20;;;;;;;;;;5035820;28;20041;-74
2023/06/26 03:04:36;;;;;;;9.13;8.00;;;;;;;;;;5050756;28;20123;-72
2023/06/26 03:07:02;;;;;;;11.07;9.02;;;;;;;;;;5039019;28;20116;-73
2023/06/26 03:09:29;;;;;;;11.15;8.20;;;;;;;;;;5043029;28;20085;-73
2023/06/26 03:11:55;;;;;;;11.32;9.30;;;;;;;;;;5035684;28;20378;-73
2023/06/26 03:14:21;;;;;;;11.32;9.50;;;;;;;;;;5038967;28;20041;-72
2023/06/26 03:16:48;;;;;;;11.02;9.27;;;;;;;;;;5033933;28;20091;-72
2023/06/26 03:19:15;;;;;;;11.63;9.27;;;;;;;;;;5039816;28;20057;-73
2023/06/26 03:21:41;;;;;;;13.85;9.70;;;;;;;;;;5034131;28;20050;-72
2023/06/26 03:24:07;;;;;;;10.25;9.07;;;;;;;;;;5039515;28;20056;-73
2023/06/26 03:26:33;;;;;;;12.15;9.30;;;;;;;;;;5053554;28;20083;-73
2023/06/26 03:28:59;;;;;;;12.40;9.55;;;;;;;;;;5053003;28;20045;-73
2023/06/26 03:31:25;;;;;;;10.38;9.10;;;;;;;;;;5053596;28;20045;-72
2023/06/26 03:33:52;;;;;;;11.93;9.82;;;;;;;;;;5052239;28;20091;-73
2023/06/26 03:36:18;;;;;;;13.70;9.50;;;;;;;;;;5038413;28;20041;-72
2023/06/26 03:38:44;;;;;;;12.57;10.10;;;;;;;;;;5035988;28;20164;-72
2023/06/26 03:41:10;;;;;;;11.05;9.80;;;;;;;;;;5053432;28;20347;-72
2023/06/26 03:43:36;;;;;;;13.73;9.35;;;;;;;;;;5054629;28;20409;-73
2023/06/26 03:46:03;;;;;;;11.90;9.32;;;;;;;;;;5039976;28;20546;-73
2023/06/26 03:48:29;;;;;;;14.52;9.88;;;;;;;;;;5034592;28;20389;-73
2023/06/26 03:50:55;;;;;;;12.25;8.98;;;;;;;;;;5026517;28;20124;-73
2023/06/26 03:53:21;;;;;;;12.07;9.52;;;;;;;;;;5049546;28;20041;-73
2023/06/26 03:55:47;;;;;;;11.27;9.27;;;;;;;;;;5046399;28;20045;-72
2023/06/26 03:58:13;;;;;;;10.10;8.60;;;;;;;;;;5049685;28;20053;-72
2023/06/26 04:00:40;;;;;;;13.50;9.13;;;;;;;;;;5034313;28;20041;-72
2023/06/26 04:03:06;;;;;;;14.23;8.95;;;;;;;;;;5034555;28;20135;-72
2023/06/26 04:05:32;;;;;;;9.93;8.60;;;;;;;;;;5037232;28;20136;-72
2023/06/26 04:07:59;;;;;;;14.00;9.57;;;;;;;;;;5039044;28;20064;-72
2023/06/26 04:10:25;;;;;;;11.05;9.25;;;;;;;;;;5019791;28;20057;-72
2023/06/26 04:12:51;;;;;;;11.30;9.18;;;;;;;;;;5036737;28;20477;-72
2023/06/26 04:15:17;;;;;;;11.52;9.55;;;;;;;;;;5054185;28;20132;-73
2023/06/26 04:17:43;;;;;;;10.60;8.70;;;;;;;;;;5036640;28;20116;-73
2023/06/26 04:20:09;;;;;;;10.88;8.57;;;;;;;;;;5052277;28;20127;-73
2023/06/26 04:22:35;;;;;;;10.63;8.80;;;;;;;;;;5054310;28;20122;-72
2023/06/26 04:25:05;;;;;;;11.88;9.10;;;;;;;;;;5053328;28;20045;-73
2023/06/26 04:27:31;;;;;;;14.50;9.18;;;;;;;;;;5054026;28;20049;-73
2023/06/26 04:29:57;;;;;;;13.18;9.30;;;;;;;;;;5052230;28;20084;-72
2023/06/26 04:32:23;;;;;;;10.00;8.40;;;;;;;;;;5052734;28;20044;-73
2023/06/26 04:34:49;;;;;;;10.45;8.95;;;;;;;;;;5053528;28;20045;-73
2023/06/26 04:37:17;;;;;;;12.43;8.40;;;;;;;;;;5035841;28;20124;-73
2023/06/26 04:39:43;;;;;;;11.48;8.30;;;;;;;;;;5049109;28;20080;-73
2023/06/26 04:42:11;;;;;;;12.85;8.60;;;;;;;;;;5051714;28;20044;-72
2023/06/26 04:44:38;;;;;;;12.57;8.15;;;;;;;;;;5021324;28;20061;-72
2023/06/26 04:47:04;;;;;;;14.50;7.80;;;;;;;;;;5039840;28;20469;-73
2023/06/26 04:49:30;;;;;;;13.05;7.65;;;;;;;;;;5051077;28;20044;-72
2023/06/26 04:52:00;;;;;;;11.82;7.25;;;;;;;;;;5041345;28;20125;-73
2023/06/26 04:54:27;;;;;;;11.85;7.40;;;;;;;;;;5050616;28;20041;-73
2023/06/26 04:56:53;;;;;;;11.82;7.57;;;;;;;;;;5040753;28;20045;-72
2023/06/26 04:59:19;;;;;;;14.55;8.00;;;;;;;;;;5030093;28;20078;-73
2023/06/26 05:01:48;;;;;;;13.63;8.48;;;;;;;;;;5051972;28;20124;-73
2023/06/26 05:04:15;;;;;;;18.02;8.88;;;;;;;;;;5038156;28;20136;-73
2023/06/26 05:06:41;;;;;;;16.27;8.77;;;;;;;;;;5047735;28;20041;-73
2023/06/26 05:09:07;;;;;;;13.23;8.55;;;;;;;;;;5050435;28;20057;-73
2023/06/26 05:11:34;;;;;;;15.40;9.05;;;;;;;;;;5021010;28;20049;-73
2023/06/26 05:14:00;;;;;;;14.73;8.85;;;;;;;;;;5039760;28;20042;-79
2023/06/26 05:16:26;;;;;;;13.00;8.68;;;;;;;;;;5026311;28;20388;-79
2023/06/26 05:18:54;;;;;;;19.00;9.85;;;;;;;;;;5051983;28;20045;-79
2023/06/26 05:21:20;;;;;;;15.63;9.27;;;;;;;;;;5053417;28;20520;-79
2023/06/26 05:23:47;;;;;;;16.65;9.75;;;;;;;;;;5053403;28;20243;-79
2023/06/26 05:26:13;;;;;;;17.65;9.73;;;;;;;;;;5043837;28;20079;-79
2023/06/26 05:28:40;;;;;;;19.40;9.60;;;;;;;;;;5034425;28;20378;-79
2023/06/26 05:31:06;;;;;;;18.10;9.45;;;;;;;;;;5033327;28;20044;-79
2023/06/26 05:33:33;;;;;;;15.77;8.55;;;;;;;;;;5033325;28;20167;-80
2023/06/26 05:36:00;;;;;;;14.95;7.50;;;;;;;;;;5039329;28;20040;-80
2023/06/26 05:38:27;;;;;;;12.88;7.00;;;;;;;;;;5051855;28;20428;-80
2023/06/26 05:40:53;;;;;;;16.35;7.00;;;;;;;;;;5047109;28;20477;-79
2023/06/26 05:43:20;;;;;;;16.95;6.93;;;;;;;;;;5015683;28;20133;-80
2023/06/26 05:45:47;;;;;;;14.52;6.75;;;;;;;;;;5038298;28;20520;-80
2023/06/26 05:48:13;;;;;;;14.02;6.40;;;;;;;;;;5037825;28;20045;-80
2023/06/26 05:50:41;;;;;;;14.10;6.85;;;;;;;;;;5051401;28;20064;-80
2023/06/26 05:53:08;;;;;;;15.15;6.53;;;;;;;;;;5041850;28;20056;-79
2023/06/26 05:55:34;;;;;;;15.45;6.00;;;;;;;;;;5051667;28;20048;-79
2023/06/26 05:58:02;;;;;;;15.35;6.47;;;;;;;;;;5052930;28;20064;-80
2023/06/26 06:00:28;;;;;;;13.50;5.90;;;;;;;;;;5050607;28;20049;-79
2023/06/26 06:02:55;;;;;;;17.25;6.28;;;;;;;;;;5041334;28;20103;-80
2023/06/26 06:05:22;;;;;;;15.65;6.10;;;;;;;;;;5034655;28;20114;-79
2023/06/26 06:07:48;;;;;;;15.63;5.97;;;;;;;;;;5036401;28;20048;-80
2023/06/26 06:10:14;;;;;;;16.73;5.80;;;;;;;;;;5032566;28;20057;-80
2023/06/26 06:12:40;;;;;;;15.57;5.43;;;;;;;;;;5015570;28;20057;-80
2023/06/26 06:15:07;;;;;;;14.70;5.75;;;;;;;;;;5014798;28;20049;-80
2023/06/26 06:17:33;;;;;;;16.83;5.22;;;;;;;;;;5024793;28;20148;-80
2023/06/26 06:19:59;;;;;;;18.83;4.57;;;;;;;;;;5052089;28;20049;-80
2023/06/26 06:22:25;;;;;;;14.63;4.88;;;;;;;;;;5051686;28;20039;-80
2023/06/26 06:24:51;;;;;;;12.85;4.78;;;;;;;;;;5038150;28;20056;-79
2023/06/26 06:27:18;;;;;;;13.15;4.57;;;;;;;;;;5040614;28;20049;-80
2023/06/26 06:29:44;;;;;;;18.40;4.72;;;;;;;;;;5050308;28;20052;-79
2023/06/26 06:32:10;;;;;;;15.43;4.28;;;;;;;;;;5036709;28;20378;-80
2023/06/26 06:34:36;;;;;;;15.93;4.38;;;;;;;;;;5034059;28;20482;-79
2023/06/26 06:37:06;;;;;;;17.30;4.65;;;;;;;;;;5054595;28;20053;-80
2023/06/26 06:39:32;;;;;;;12.07;4.03;;;;;;;;;;5034187;28;20216;-80
2023/06/26 06:41:58;;;;;;;17.27;4.53;;;;;;;;;;5052050;28;20088;-80
2023/06/26 06:44:24;;;;;;;12.40;3.53;;;;;;;;;;5046508;28;20053;-78
2023/06/26 06:46:50;;;;;;;12.57;3.90;;;;;;;;;;5029718;28;20443;-79
2023/06/26 06:49:16;;;;;;;12.38;3.55;;;;;;;;;;5034026;28;20037;-79
2023/06/26 06:51:42;;;;;;;9.93;3.25;;;;;;;;;;5035071;28;20508;-79
2023/06/26 06:54:09;;;;;;;12.80;3.45;;;;;;;;;;5052430;28;20446;-79
2023/06/26 06:56:35;;;;;;;12.68;3.28;;;;;;;;;;5052046;28;20124;-79
2023/06/26 06:59:01;;;;;;;12.40;3.35;;;;;;;;;;5052111;28;20048;-80
2023/06/26 07:01:28;;;;;;;10.45;3.05;;;;;;;;;;5051888;28;20440;-79
2023/06/26 07:03:54;;;;;;;10.35;3.25;;;;;;;;;;5051817;28;20053;-79
2023/06/26 07:06:20;;;;;;;10.80;3.00;;;;;;;;;;5050444;28;20095;-79
2023/06/26 07:08:46;;;;;;;10.45;3.20;;;;;;;;;;5033763;28;20041;-80
2023/06/26 07:11:12;;;;;;;11.60;3.30;;;;;;;;;;5051465;28;20103;-80
2023/06/26 07:13:38;;;;;;;9.13;2.47;;;;;;;;;;5050359;28;20179;-81
2023/06/26 07:16:04;;;;;;;7.07;2.60;;;;;;;;;;5051873;28;20044;-79
2023/06/26 07:18:31;;;;;;;7.65;2.63;;;;;;;;;;5051468;28;20350;-79
2023/06/26 07:20:57;;;;;;;10.07;2.72;;;;;;;;;;5042392;28;20073;-80
2023/06/26 07:23:23;;;;;;;8.55;2.47;;;;;;;;;;5048657;28;20068;-80
2023/06/26 07:25:50;;;;;;;8.98;2.55;;;;;;;;;;5050960;28;20041;-80
2023/06/26 07:28:16;;;;;;;9.35;2.45;;;;;;;;;;5035530;28;20164;-79
2023/06/26 07:30:42;;;;;;;8.30;2.72;;;;;;;;;;5035790;28;20052;-78
2023/06/26 07:33:08;;;;;;;14.18;2.92;;;;;;;;;;5036606;28;20045;-78
2023/06/26 07:35:34;;;;;;;13.35;2.85;;;;;;;;;;5054547;28;20094;-78
2023/06/26 07:38:00;;;;;;;7.60;2.60;;;;;;;;;;5055406;28;20064;-78
2023/06/26 07:40:27;;;;;;;7.95;2.38;;;;;;;;;;5034274;28;20048;-77
2023/06/26 07:42:54;;;;;;;9.50;2.70;;;;;;;;;;5054079;28;20045;-77
2023/06/26 07:45:20;;;;;;;10.15;2.70;;;;;;;;;;5054038;28;20037;-77
2023/06/26 07:47:46;;;;;;;7.97;2.10;;;;;;;;;;5025169;28;20080;-77
2023/06/26 07:50:15;;;;;;;7.63;2.28;;;;;;;;;;5054104;28;20041;-77
2023/06/26 07:52:41;;;;;;;6.40;2.13;;;;;;;;;;5052463;28;20076;-78
2023/06/26 07:55:07;;;;;;;6.38;2.03;;;;;;;;;;5037349;28;20557;-80
2023/06/26 07:57:34;;;;;;;6.55;2.15;;;;;;;;;;5053927;28;20138;-80
2023/06/26 08:00:02;;;;;;;7.22;2.25;;;;;;;;;;5042455;28;20044;-79
2023/06/26 08:02:29;;;;;;;4.78;1.90;;;;;;;;;;5054329;28;20389;-78
2023/06/26 08:04:55;;;;;;;6.10;2.20;;;;;;;;;;5049102;28;20490;-77
2023/06/26 08:07:21;;;;;;;7.70;2.38;;;;;;;;;;5030938;28;20044;-78
2023/06/26 08:09:47;;;;;;;6.68;2.22;;;;;;;;;;5034972;28;20049;-78
2023/06/26 08:12:13;;;;;;;6.05;2.15;;;;;;;;;;5033560;28;20042;-79
2023/06/26 08:14:39;;;;;;;8.23;2.45;;;;;;;;;;5034324;28;20487;-79
2023/06/26 08:17:06;;;;;;;6.18;2.30;;;;;;;;;;5033667;28;20482;-79
2023/06/26 08:19:32;;;;;;;6.78;2.25;;;;;;;;;;5019531;28;20072;-79
2023/06/26 08:21:58;;;;;;;8.82;2.10;;;;;;;;;;5034937;28;20152;-79
2023/06/26 08:24:24;;;;;;;6.70;2.15;;;;;;;;;;5045206;28;20116;-80
2023/06/26 08:26:51;;;;;;;9.48;2.47;;;;;;;;;;5015829;28;20049;-79
2023/06/26 08:29:17;;;;;;;6.82;2.17;;;;;;;;;;5034105;28;20080;-79
2023/06/26 08:31:44;;;;;;;8.30;2.33;;;;;;;;;;5033833;28;20091;-79
2023/06/26 08:34:10;;;;;;;6.75;2.08;;;;;;;;;;5035482;28;20049;-79
2023/06/26 08:36:36;;;;;;;12.73;2.67;;;;;;;;;;5015667;28;20051;-79
2023/06/26 08:39:02;;;;;;;7.53;2.47;;;;;;;;;;5033837;28;20412;-79
2023/06/26 08:41:29;;;;;;;10.55;2.58;;;;;;;;;;5034259;28;20461;-79
2023/06/26 08:43:55;;;;;;;7.55;2.20;;;;;;;;;;5033862;28;20478;-79
2023/06/26 08:46:21;;;;;;;5.30;2.33;;;;;;;;;;5034047;28;20041;-79
2023/06/26 08:48:56;;;;;;;8.38;2.40;;;;;;;;;;5017126;28;20062;-79
2023/06/26 08:51:25;;;;;;;9.20;2.40;;;;;;;;;;5037150;28;20072;-78
2023/06/26 08:53:54;;;;;;;5.88;2.35;;;;;;;;;;5052288;28;20056;-76
2023/06/26 08:56:22;;;;;;;7.38;2.70;;;;;;;;;;5054054;28;20037;-76
2023/06/26 08:58:48;;;;;;;7.25;2.80;;;;;;;;;;5065305;28;20076;-77
2023/06/26 09:01:14;;;;;;;6.50;2.60;;;;;;;;;;5054606;28;20041;-78
2023/06/26 09:03:41;;;;;;;4.85;2.13;;;;;;;;;;5036448;28;20048;-79
2023/06/26 09:06:07;;;;;;;7.88;2.13;;;;;;;;;;5036278;28;20057;-78
2023/06/26 09:08:34;;;;;;;5.60;2.30;;;;;;;;;;5051945;28;20045;-79
2023/06/26 09:11:00;;;;;;;7.10;2.20;;;;;;;;;;5050849;28;20052;-79
2023/06/26 09:13:26;;;;;;;6.97;2.30;;;;;;;;;;5053814;28;20057;-79
2023/06/26 09:15:54;;;;;;;11.15;2.47;;;;;;;;;;5053891;28;20073;-78
2023/06/26 09:18:21;;;;;;;4.22;2.00;;;;;;;;;;5052069;28;20033;-79
2023/06/26 09:20:47;;;;;;;5.63;2.30;;;;;;;;;;5033544;28;20098;-80
2023/06/26 09:23:14;;;;;;;5.32;2.30;;;;;;;;;;5036055;28;20041;-79
2023/06/26 09:25:41;;;;;;;10.55;2.75;;;;;;;;;;5033673;28;20109;-80
2023/06/26 09:28:07;;;;;;;5.80;2.10;;;;;;;;;;5038806;28;20140;-80
2023/06/26 09:30:33;;;;;;;6.30;2.40;;;;;;;;;;5034583;28;20037;-79
2023/06/26 09:33:15;;;;;;;7.95;2.55;;;;;;;;;;5036499;28;20404;-80
2023/06/26 09:35:45;;;;;;;6.22;2.20;;;;;;;;;;5035716;28;20045;-79
2023/06/26 09:38:12;;;;;;;6.30;2.45;;;;;;;;;;5039496;28;20041;-80
2023/06/26 09:40:38;;;;;;;7.30;2.30;;;;;;;;;;5015289;28;20049;-79
2023/06/26 09:43:05;;;;;;;5.28;2.35;;;;;;;;;;5042974;28;20041;-79
2023/06/26 09:45:36;;;;;;;7.45;2.20;;;;;;;;;;5052083;28;20056;-78
2023/06/26 09:48:05;;;;;;;4.90;2.10;;;;;;;;;;5064932;28;20140;-81
2023/06/26 09:50:37;;;;;;;7.80;2.60;;;;;;;;;;5058524;28;20131;-80
2023/06/26 09:53:13;;;;;;;7.63;2.60;;;;;;;;;;5053009;28;20132;-79
2023/06/26 09:55:43;;;;;;;8.27;2.80;;;;;;;;;;5053112;28;20551;-79
2023/06/26 09:58:14;;;;;;;6.13;2.42;;;;;;;;;;5053333;28;20090;-79
2023/06/26 10:00:41;;;;;;;7.68;2.80;;;;;;;;;;5053891;28;20131;-79
2023/06/26 10:03:08;;;;;;;6.13;2.72;;;;;;;;;;5037999;28;20378;-78
2023/06/26 10:05:34;;;;;;;8.68;2.70;;;;;;;;;;5054740;28;20049;-79
2023/06/26 10:08:01;;;;;;;8.05;2.72;;;;;;;;;;5054561;28;20056;-79
2023/06/26 10:10:27;;;;;;;4.85;2.33;;;;;;;;;;5053616;28;20057;-79
2023/06/26 10:12:59;;;;;;;7.72;2.60;;;;;;;;;;5052415;28;20131;-79
2023/06/26 10:15:26;;;;;;;6.07;2.53;;;;;;;;;;5050998;28;20084;-80
2023/06/26 10:17:54;;;;;;;5.30;2.28;;;;;;;;;;5051685;28;20056;-80
2023/06/26 10:20:20;;;;;;;5.18;2.63;;;;;;;;;;5053221;28;20055;-78
2023/06/26 10:22:47;;;;;;;5.80;2.22;;;;;;;;;;5033691;28;20086;-78
2023/06/26 10:25:17;;;;;;;5.85;2.50;;;;;;;;;;5044341;28;20447;-77
2023/06/26 10:27:46;;;;;;;6.47;2.55;;;;;;;;;;5028692;28;20116;-78
2023/06/26 10:30:13;;;;;;;7.28;2.58;;;;;;;;;;5052255;28;20081;-77
2023/06/26 10:32:40;;;;;;;5.88;2.67;;;;;;;;;;5050710;28;20059;-79
2023/06/26 10:35:07;;;;;;;4.57;2.25;;;;;;;;;;5034848;28;20509;-80
2023/06/26 10:37:50;;;;;;;7.13;2.40;;;;;;;;;;5030559;28;20049;-79
2023/06/26 10:40:42;;;;;;;7.18;3.08;;;;;;;;;;5030571;28;20088;-79
2023/06/26 10:43:09;;;;;;;6.70;2.70;;;;;;;;;;5009798;28;20552;-80
2023/06/26 10:45:36;;;;;;;5.55;2.70;;;;;;;;;;5031232;28;20797;-79
2023/06/26 10:48:04;;;;;;;8.00;2.65;;;;;;;;;;5030289;28;20060;-79
2023/06/26 10:50:37;;;;;;;8.55;2.45;;;;;;;;;;5043525;28;20049;-80
2023/06/26 10:53:06;;;;;;;7.90;2.67;;;;;;;;;;5031729;28;20103;-81
2023/06/26 10:55:32;;;;;;;6.90;2.70;;;;;;;;;;5049929;28;20402;-80
2023/06/26 10:57:58;;;;;;;7.13;2.78;;;;;;;;;;5049671;28;20079;-80
2023/06/26 11:00:25;;;;;;;6.45;2.70;;;;;;;;;;5052435;28;20048;-79
2023/06/26 11:02:51;;;;;;;8.80;2.70;;;;;;;;;;5053014;28;20041;-79
2023/06/26 11:05:25;;;;;;;5.25;2.60;;;;;;;;;;5035026;28;20084;-80
2023/06/26 11:08:09;;;;;;;6.10;2.60;;;;;;;;;;5053167;28;20072;-79
2023/06/26 11:10:51;;;;;;;8.13;2.20;;;;;;;;;;5035028;28;20068;-80
2023/06/26 11:13:18;;;;;;;7.78;2.30;;;;;;;;;;5052798;28;20390;-76
2023/06/26 11:15:45;;;;;;;4.90;2.10;;;;;;;;;;5026730;28;20049;-75
2023/06/26 11:18:11;;;;;;;7.78;2.38;;;;;;;;;;5052032;28;20049;-75
2023/06/26 11:20:37;;;;;;;7.53;2.35;;;;;;;;;;5055293;28;20045;-75
2023/06/26 11:23:07;;;;;;;6.75;2.22;;;;;;;;;;5053134;28;20517;-75
2023/06/26 11:25:37;;;;;;;6.57;2.10;;;;;;;;;;5035230;28;20038;-76
2023/06/26 11:28:06;;;;;;;5.95;1.90;;;;;;;;;;5047842;28;20048;-75
2023/06/26 11:30:32;;;;;;;7.60;2.10;;;;;;;;;;5046705;28;20045;-75
2023/06/26 11:33:08;;;;;;;6.03;1.90;;;;;;;;;;5054042;28;20048;-75
2023/06/26 11:35:34;;;;;;;5.07;1.90;;;;;;;;;;5054920;28;20132;-76
2023/06/26 11:38:04;;;;;;;4.30;1.90;;;;;;;;;;5054735;28;20045;-76
2023/06/26 11:40:31;;;;;;;6.38;1.80;;;;;;;;;;5053111;28;20049;-75
2023/06/26 11:43:01;;;;;;;6.43;2.00;;;;;;;;;;5054561;28;20060;-75
2023/06/26 11:45:31;;;;;;;6.28;1.80;;;;;;;;;;5054382;28;20049;-74
2023/06/26 11:47:58;;;;;;;4.82;1.80;;;;;;;;;;5054797;28;20422;-76
2023/06/26 11:50:25;;;;;;;7.88;1.80;;;;;;;;;;5051754;28;20041;-76
2023/06/26 11:52:58;;;;;;;5.38;1.70;;;;;;;;;;5051494;28;20037;-77
2023/06/26 11:55:24;;;;;;;7.60;1.80;;;;;;;;;;5049072;28;20369;-76
2023/06/26 11:57:51;;;;;;;6.03;1.75;;;;;;;;;;5030585;28;20088;-75
2023/06/26 12:00:17;;;;;;;6.32;1.98;;;;;;;;;;5034894;28;20052;-77
2023/06/26 12:02:47;;;;;;;8.00;1.70;;;;;;;;;;5052504;28;20071;-76
2023/06/26 12:05:16;;;;;;;6.53;1.60;;;;;;;;;;5032957;28;20485;-76
2023/06/26 12:07:44;;;;;;;5.88;2.00;;;;;;;;;;5044409;28;20509;-76
2023/06/26 12:10:14;;;;;;;7.35;1.92;;;;;;;;;;5053206;28;20064;-77
2023/06/26 12:12:40;;;;;;;6.13;1.75;;;;;;;;;;5046479;28;20049;-76
2023/06/26 12:15:07;;;;;;;6.53;1.88;;;;;;;;;;5052368;28;20057;-78
2023/06/26 12:17:34;;;;;;;7.82;1.98;;;;;;;;;;5034226;28;20094;-78
2023/06/26 12:20:01;;;;;;;7.50;2.00;;;;;;;;;;5034548;28;20220;-77
2023/06/26 12:22:34;;;;;;;6.38;1.92;;;;;;;;;;5022809;28;20045;-78
2023/06/26 12:25:00;;;;;;;7.28;1.90;;;;;;;;;;5032689;28;20475;-78
2023/06/26 12:27:26;;;;;;;6.82;1.80;;;;;;;;;;5044023;28;20060;-81
2023/06/26 12:29:54;;;;;;;10.38;2.00;;;;;;;;;;5053910;28;20045;-74
2023/06/26 12:32:24;;;;;;;7.85;1.90;;;;;;;;;;5035585;28;20056;-76
2023/06/26 12:34:50;;;;;;;5.43;1.90;;;;;;;;;;5052039;28;20111;-75
2023/06/26 12:37:17;;;;;;;9.35;2.33;;;;;;;;;;5052164;28;20065;-75
2023/06/26 12:39:47;;;;;;;6.22;1.98;;;;;;;;;;5033609;28;20379;-76
2023/06/26 12:42:17;;;;;;;3.90;1.60;;;;;;;;;;5033935;28;20045;-75
2023/06/26 12:44:43;;;;;;;5.38;1.60;;;;;;;;;;5033637;28;20465;-76
2023/06/26 12:47:10;;;;;;;6.10;1.80;;;;;;;;;;5039155;28;20112;-76
2023/06/26 12:49:39;;;;;;;6.50;1.85;;;;;;;;;;5052595;28;20041;-71
2023/06/26 12:52:07;;;;;;;4.07;1.70;;;;;;;;;;5051060;28;20116;-70
2023/06/26 12:54:37;;;;;;;5.60;1.63;;;;;;;;;;5049290;28;20105;-71
2023/06/26 12:57:03;;;;;;;6.32;2.00;;;;;;;;;;5051145;28;20041;-70
2023/06/26 12:59:31;;;;;;;7.05;1.90;;;;;;;;;;5050887;28;20554;-70
2023/06/26 13:01:57;;;;;;;8.10;2.10;;;;;;;;;;5032173;28;20056;-70
2023/06/26 13:04:23;;;;;;;6.63;2.00;;;;;;;;;;5048463;28;20374;-70
2023/06/26 13:06:50;;;;;;;7.40;2.00;;;;;;;;;;5049928;28;20083;-70
2023/06/26 13:09:16;;;;;;;8.73;1.80;;;;;;;;;;5048777;28;20052;-72
2023/06/26 13:11:42;;;;;;;6.13;1.75;;;;;;;;;;5033250;28;20041;-71
2023/06/26 13:14:08;;;;;;;6.40;1.90;;;;;;;;;;5051589;28;20052;-71
2023/06/26 13:16:35;;;;;;;7.53;1.98;;;;;;;;;;5052120;28;20041;-71
2023/06/26 13:19:01;;;;;;;9.13;2.00;;;;;;;;;;5051507;28;20051;-71
2023/06/26 13:21:28;;;;;;;5.55;1.88;;;;;;;;;;5050692;28;20102;-77
2023/06/26 13:23:55;;;;;;;7.32;2.10;;;;;;;;;;5039573;28;20128;-75
2023/06/26 13:26:25;;;;;;;5.32;1.88;;;;;;;;;;5032836;28;20041;-75
2023/06/26 13:28:51;;;;;;;4.88;1.75;;;;;;;;;;5033241;28;20422;-74
2023/06/26 13:31:17;;;;;;;6.57;2.20;;;;;;;;;;5032974;28;20040;-77
2023/06/26 13:33:45;;;;;;;5.50;1.80;;;;;;;;;;5016162;28;20179;-75
2023/06/26 13:36:12;;;;;;;6.22;1.77;;;;;;;;;;5036738;28;20052;-75
2023/06/26 13:38:38;;;;;;;4.93;1.73;;;;;;;;;;5019550;28;20045;-74
2023/06/26 13:41:04;;;;;;;7.03;1.70;;;;;;;;;;5033830;28;20049;-75
2023/06/26 13:43:30;;;;;;;5.57;1.58;;;;;;;;;;5033296;28;20048;-75
2023/06/26 13:45:57;;;;;;;5.22;1.95;;;;;;;;;;5013821;28;20390;-76
2023/06/26 13:48:26;;;;;;;8.85;2.08;;;;;;;;;;5030811;28;20128;-75
2023/06/26 13:50:52;;;;;;;3.53;1.65;;;;;;;;;;5029849;28;20045;-76
2023/06/26 13:53:18;;;;;;;8.85;2.00;;;;;;;;;;5024555;28;20045;-76
2023/06/26 13:55:45;;;;;;;4.88;1.80;;;;;;;;;;5048303;28;20141;-77
2023/06/26 13:58:13;;;;;;;6.95;2.28;;;;;;;;;;5051035;28;20048;-77
2023/06/26 14:00:39;;;;;;;9.05;2.13;;;;;;;;;;5048053;28;20072;-77
2023/06/26 14:03:09;;;;;;;6.05;1.90;;;;;;;;;;5024158;28;20048;-77
2023/06/26 14:05:36;;;;;;;6.13;2.10;;;;;;;;;;5051917;28;20064;-77
2023/06/26 14:08:04;;;;;;;6.00;1.98;;;;;;;;;;5034625;28;20110;-77
2023/06/26 14:10:30;;;;;;;6.32;2.25;;;;;;;;;;5033648;28;20068;-75
2023/06/26 14:12:56;;;;;;;6.45;2.30;;;;;;;;;;5051650;28;20135;-77
2023/06/26 14:15:22;;;;;;;9.27;2.30;;;;;;;;;;5034735;28;20045;-78
2023/06/26 14:17:50;;;;;;;7.70;2.40;;;;;;;;;;5047184;28;20175;-77
2023/06/26 14:20:17;;;;;;;5.95;2.10;;;;;;;;;;5031932;28;20112;-77
2023/06/26 14:22:43;;;;;;;7.95;2.33;;;;;;;;;;5048003;28;20073;-76
2023/06/26 14:25:10;;;;;;;8.77;2.45;;;;;;;;;;5051588;28;20048;-76
2023/06/26 14:27:37;;;;;;;10.63;2.35;;;;;;;;;;5034186;28;20053;-76
2023/06/26 14:30:07;;;;;;;7.97;2.00;;;;;;;;;;5048602;28;20108;-76
2023/06/26 14:32:34;;;;;;;9.15;2.30;;;;;;;;;;5052476;28;20051;-76
2023/06/26 14:35:00;;;;;;;7.30;2.10;;;;;;;;;;5052692;28;20120;-76
2023/06/26 14:37:26;;;;;;;8.63;2.17;;;;;;;;;;5054759;28;20087;-76